sensor_id;sensor_type;location;lat;lon;timestamp;P1;durP1;ratioP1;P2;durP2;ratioP2
27740;SDS011;15134;48.768;9.184;2024-03-29T00:00:25;809.33;;;684.47;;
27740;SDS011;15134;48.768;9.184;2024-03-29T00:02:51;812.40;;;684.08;;
27740;SDS011;15134;48.768;9.184;2024-03-29T00:05:17;806.13;;;673.22;;
27740;SDS011;15134;48.768;9.184;2024-03-29T00:07:42;808.42;;;676.72;;
27740;SDS011;15134;48.768;9.184;2024-03-29T00:10:08;810.53;;;680.17;;
27740;SDS011;15134;48.768;9.184;2024-03-29T00:12:34;807.20;;;672.77;;
27740;SDS011;15134;48.768;9.184;2024-03-29T00:15:00;806.63;;;671.22;;
27740;SDS011;15134;48.768;9.184;2024-03-29T00:17:26;808.60;;;674.75;;
27740;SDS011;15134;48.768;9.184;2024-03-29T00:19:51;805.83;;;671.83;;
27740;SDS011;15134;48.768;9.184;2024-03-29T00:22:17;810.33;;;679.58;;
27740;SDS011;15134;48.768;9.184;2024-03-29T00:24:43;809.88;;;679.00;;
27740;SDS011;15134;48.768;9.184;2024-03-29T00:27:09;811.45;;;686.83;;
27740;SDS011;15134;48.768;9.184;2024-03-29T00:29:38;809.58;;;680.00;;
27740;SDS011;15134;48.768;9.184;2024-03-29T00:32:04;812.72;;;688.45;;
27740;SDS011;15134;48.768;9.184;2024-03-29T00:34:30;811.67;;;681.92;;
27740;SDS011;15134;48.768;9.184;2024-03-29T00:36:56;810.72;;;679.88;;
27740;SDS011;15134;48.768;9.184;2024-03-29T00:39:21;807.75;;;677.47;;
27740;SDS011;15134;48.768;9.184;2024-03-29T00:41:47;809.87;;;676.77;;
27740;SDS011;15134;48.768;9.184;2024-03-29T00:44:13;812.83;;;686.63;;
27740;SDS011;15134;48.768;9.184;2024-03-29T00:46:40;811.33;;;680.50;;
27740;SDS011;15134;48.768;9.184;2024-03-29T00:49:05;810.80;;;679.97;;
27740;SDS011;15134;48.768;9.184;2024-03-29T00:51:31;815.67;;;694.13;;
27740;SDS011;15134;48.768;9.184;2024-03-29T00:53:57;812.60;;;685.57;;
27740;SDS011;15134;48.768;9.184;2024-03-29T00:56:23;811.15;;;680.47;;
27740;SDS011;15134;48.768;9.184;2024-03-29T00:58:49;812.87;;;685.43;;
27740;SDS011;15134;48.768;9.184;2024-03-29T01:01:15;817.20;;;697.55;;
27740;SDS011;15134;48.768;9.184;2024-03-29T01:03:41;818.50;;;695.58;;
27740;SDS011;15134;48.768;9.184;2024-03-29T01:06:07;812.73;;;685.60;;
27740;SDS011;15134;48.768;9.184;2024-03-29T01:08:33;816.97;;;692.58;;
27740;SDS011;15134;48.768;9.184;2024-03-29T01:10:58;816.08;;;692.85;;
27740;SDS011;15134;48.768;9.184;2024-03-29T01:13:24;815.15;;;692.33;;
27740;SDS011;15134;48.768;9.184;2024-03-29T01:15:50;819.58;;;696.63;;
27740;SDS011;15134;48.768;9.184;2024-03-29T01:18:16;819.95;;;695.22;;
27740;SDS011;15134;48.768;9.184;2024-03-29T01:20:42;818.30;;;696.60;;
27740;SDS011;15134;48.768;9.184;2024-03-29T01:23:08;816.00;;;696.85;;
27740;SDS011;15134;48.768;9.184;2024-03-29T01:25:34;816.28;;;692.55;;
27740;SDS011;15134;48.768;9.184;2024-03-29T01:27:59;815.80;;;692.73;;
27740;SDS011;15134;48.768;9.184;2024-03-29T01:30:25;817.37;;;692.80;;
27740;SDS011;15134;48.768;9.184;2024-03-29T01:32:52;815.45;;;692.20;;
27740;SDS011;15134;48.768;9.184;2024-03-29T01:35:18;818.65;;;696.65;;
27740;SDS011;15134;48.768;9.184;2024-03-29T01:37:43;818.35;;;696.85;;
27740;SDS011;15134;48.768;9.184;2024-03-29T01:40:09;817.10;;;698.70;;
27740;SDS011;15134;48.768;9.184;2024-03-29T01:42:36;818.00;;;695.80;;
27740;SDS011;15134;48.768;9.184;2024-03-29T01:45:02;814.80;;;693.83;;
27740;SDS011;15134;48.768;9.184;2024-03-29T01:47:30;814.45;;;690.00;;
27740;SDS011;15134;48.768;9.184;2024-03-29T01:49:55;814.00;;;689.97;;
27740;SDS011;15134;48.768;9.184;2024-03-29T01:52:42;813.97;;;691.40;;
27740;SDS011;15134;48.768;9.184;2024-03-29T01:55:08;817.05;;;695.47;;
27740;SDS011;15134;48.768;9.184;2024-03-29T01:57:34;819.40;;;700.85;;
27740;SDS011;15134;48.768;9.184;2024-03-29T02:00:01;817.00;;;698.40;;
27740;SDS011;15134;48.768;9.184;2024-03-29T02:02:32;818.08;;;698.72;;
27740;SDS011;15134;48.768;9.184;2024-03-29T02:04:58;813.20;;;687.00;;
27740;SDS011;15134;48.768;9.184;2024-03-29T02:07:25;817.78;;;695.25;;
27740;SDS011;15134;48.768;9.184;2024-03-29T02:09:52;814.00;;;689.67;;
27740;SDS011;15134;48.768;9.184;2024-03-29T02:12:18;812.85;;;690.58;;
27740;SDS011;15134;48.768;9.184;2024-03-29T02:14:44;808.88;;;684.50;;
27740;SDS011;15134;48.768;9.184;2024-03-29T02:17:09;811.00;;;684.45;;
27740;SDS011;15134;48.768;9.184;2024-03-29T02:19:35;816.37;;;694.30;;
27740;SDS011;15134;48.768;9.184;2024-03-29T02:22:02;813.20;;;685.95;;
27740;SDS011;15134;48.768;9.184;2024-03-29T02:24:31;811.42;;;686.67;;
27740;SDS011;15134;48.768;9.184;2024-03-29T02:26:57;811.38;;;682.63;;
27740;SDS011;15134;48.768;9.184;2024-03-29T02:29:23;813.17;;;688.22;;
27740;SDS011;15134;48.768;9.184;2024-03-29T02:31:50;814.33;;;690.75;;
27740;SDS011;15134;48.768;9.184;2024-03-29T02:34:16;817.70;;;692.65;;
27740;SDS011;15134;48.768;9.184;2024-03-29T02:36:44;811.35;;;685.63;;
27740;SDS011;15134;48.768;9.184;2024-03-29T02:39:10;815.53;;;690.60;;
27740;SDS011;15134;48.768;9.184;2024-03-29T02:41:36;816.30;;;695.00;;
27740;SDS011;15134;48.768;9.184;2024-03-29T02:44:02;814.20;;;688.73;;
27740;SDS011;15134;48.768;9.184;2024-03-29T02:46:27;813.22;;;690.90;;
27740;SDS011;15134;48.768;9.184;2024-03-29T02:48:53;811.90;;;686.65;;
27740;SDS011;15134;48.768;9.184;2024-03-29T02:51:21;816.03;;;693.08;;
27740;SDS011;15134;48.768;9.184;2024-03-29T02:53:47;817.35;;;696.97;;
27740;SDS011;15134;48.768;9.184;2024-03-29T02:56:12;815.57;;;694.50;;
27740;SDS011;15134;48.768;9.184;2024-03-29T02:58:39;816.80;;;696.78;;
27740;SDS011;15134;48.768;9.184;2024-03-29T03:01:06;812.97;;;690.90;;
27740;SDS011;15134;48.768;9.184;2024-03-29T03:03:35;814.30;;;693.60;;
27740;SDS011;15134;48.768;9.184;2024-03-29T03:06:01;815.33;;;693.10;;
27740;SDS011;15134;48.768;9.184;2024-03-29T03:08:28;817.28;;;695.40;;
27740;SDS011;15134;48.768;9.184;2024-03-29T03:11:13;818.88;;;699.35;;
27740;SDS011;15134;48.768;9.184;2024-03-29T03:13:39;816.90;;;696.90;;
27740;SDS011;15134;48.768;9.184;2024-03-29T03:16:05;817.93;;;699.87;;
27740;SDS011;15134;48.768;9.184;2024-03-29T03:18:31;817.42;;;697.38;;
27740;SDS011;15134;48.768;9.184;2024-03-29T03:20:57;817.13;;;695.67;;
27740;SDS011;15134;48.768;9.184;2024-03-29T03:23:24;818.43;;;696.83;;
27740;SDS011;15134;48.768;9.184;2024-03-29T03:25:53;815.00;;;693.45;;
27740;SDS011;15134;48.768;9.184;2024-03-29T03:28:30;814.10;;;689.50;;
27740;SDS011;15134;48.768;9.184;2024-03-29T03:30:56;817.55;;;697.17;;
27740;SDS011;15134;48.768;9.184;2024-03-29T03:33:22;819.85;;;703.67;;
27740;SDS011;15134;48.768;9.184;2024-03-29T03:35:48;815.63;;;692.13;;
27740;SDS011;15134;48.768;9.184;2024-03-29T03:38:15;817.10;;;698.00;;
27740;SDS011;15134;48.768;9.184;2024-03-29T03:40:41;816.95;;;701.33;;
27740;SDS011;15134;48.768;9.184;2024-03-29T03:43:08;814.38;;;691.40;;
27740;SDS011;15134;48.768;9.184;2024-03-29T03:45:38;815.60;;;694.88;;
27740;SDS011;15134;48.768;9.184;2024-03-29T03:48:05;818.90;;;699.78;;
27740;SDS011;15134;48.768;9.184;2024-03-29T03:50:36;819.42;;;701.33;;
27740;SDS011;15134;48.768;9.184;2024-03-29T03:53:02;814.92;;;696.65;;
27740;SDS011;15134;48.768;9.184;2024-03-29T03:55:28;818.55;;;702.85;;
27740;SDS011;15134;48.768;9.184;2024-03-29T03:57:54;816.08;;;698.08;;
27740;SDS011;15134;48.768;9.184;2024-03-29T04:00:20;820.28;;;705.90;;
27740;SDS011;15134;48.768;9.184;2024-03-29T04:02:50;817.45;;;697.72;;
27740;SDS011;15134;48.768;9.184;2024-03-29T04:05:20;816.35;;;703.72;;
27740;SDS011;15134;48.768;9.184;2024-03-29T04:07:46;812.63;;;689.58;;
27740;SDS011;15134;48.768;9.184;2024-03-29T04:10:12;816.72;;;697.63;;
27740;SDS011;15134;48.768;9.184;2024-03-29T04:12:38;816.42;;;697.90;;
27740;SDS011;15134;48.768;9.184;2024-03-29T04:15:04;818.95;;;701.30;;
27740;SDS011;15134;48.768;9.184;2024-03-29T04:17:31;817.25;;;696.28;;
27740;SDS011;15134;48.768;9.184;2024-03-29T04:19:57;818.63;;;700.35;;
27740;SDS011;15134;48.768;9.184;2024-03-29T04:22:24;818.15;;;702.38;;
27740;SDS011;15134;48.768;9.184;2024-03-29T04:24:50;818.33;;;702.65;;
27740;SDS011;15134;48.768;9.184;2024-03-29T04:27:16;820.95;;;705.20;;
27740;SDS011;15134;48.768;9.184;2024-03-29T04:29:42;821.80;;;706.53;;
27740;SDS011;15134;48.768;9.184;2024-03-29T04:32:08;821.75;;;708.03;;
27740;SDS011;15134;48.768;9.184;2024-03-29T04:34:34;819.05;;;700.55;;
27740;SDS011;15134;48.768;9.184;2024-03-29T04:37:00;821.07;;;709.77;;
27740;SDS011;15134;48.768;9.184;2024-03-29T04:39:25;817.08;;;696.53;;
27740;SDS011;15134;48.768;9.184;2024-03-29T04:41:52;818.25;;;700.85;;
27740;SDS011;15134;48.768;9.184;2024-03-29T04:44:24;817.50;;;700.83;;
27740;SDS011;15134;48.768;9.184;2024-03-29T04:46:51;819.38;;;704.67;;
27740;SDS011;15134;48.768;9.184;2024-03-29T04:49:21;815.67;;;697.43;;
27740;SDS011;15134;48.768;9.184;2024-03-29T04:51:54;813.33;;;689.42;;
27740;SDS011;15134;48.768;9.184;2024-03-29T04:54:19;813.47;;;686.77;;
27740;SDS011;15134;48.768;9.184;2024-03-29T04:56:45;813.57;;;687.47;;
27740;SDS011;15134;48.768;9.184;2024-03-29T04:59:11;812.88;;;689.17;;
27740;SDS011;15134;48.768;9.184;2024-03-29T05:01:37;809.97;;;682.50;;
27740;SDS011;15134;48.768;9.184;2024-03-29T05:04:03;810.15;;;678.38;;
27740;SDS011;15134;48.768;9.184;2024-03-29T05:06:29;807.30;;;677.22;;
27740;SDS011;15134;48.768;9.184;2024-03-29T05:08:55;804.17;;;667.30;;
27740;SDS011;15134;48.768;9.184;2024-03-29T05:11:21;811.25;;;681.25;;
27740;SDS011;15134;48.768;9.184;2024-03-29T05:13:47;808.75;;;675.83;;
27740;SDS011;15134;48.768;9.184;2024-03-29T05:16:12;810.90;;;682.90;;
27740;SDS011;15134;48.768;9.184;2024-03-29T05:18:38;814.88;;;692.60;;
27740;SDS011;15134;48.768;9.184;2024-03-29T05:21:04;814.85;;;691.92;;
27740;SDS011;15134;48.768;9.184;2024-03-29T05:23:30;814.65;;;688.55;;
27740;SDS011;15134;48.768;9.184;2024-03-29T05:25:56;817.20;;;696.15;;
27740;SDS011;15134;48.768;9.184;2024-03-29T05:28:22;818.45;;;698.13;;
27740;SDS011;15134;48.768;9.184;2024-03-29T05:30:48;820.20;;;702.97;;
27740;SDS011;15134;48.768;9.184;2024-03-29T05:33:13;817.43;;;699.47;;
27740;SDS011;15134;48.768;9.184;2024-03-29T05:35:40;818.92;;;700.03;;
27740;SDS011;15134;48.768;9.184;2024-03-29T05:38:06;822.58;;;706.97;;
27740;SDS011;15134;48.768;9.184;2024-03-29T05:40:32;819.35;;;702.90;;
27740;SDS011;15134;48.768;9.184;2024-03-29T05:42:57;823.55;;;710.55;;
27740;SDS011;15134;48.768;9.184;2024-03-29T05:45:27;816.40;;;698.85;;
27740;SDS011;15134;48.768;9.184;2024-03-29T05:47:54;821.47;;;703.78;;
27740;SDS011;15134;48.768;9.184;2024-03-29T05:50:21;822.13;;;707.03;;
27740;SDS011;15134;48.768;9.184;2024-03-29T05:52:48;820.80;;;706.42;;
27740;SDS011;15134;48.768;9.184;2024-03-29T05:55:14;821.72;;;705.78;;
27740;SDS011;15134;48.768;9.184;2024-03-29T05:57:40;822.97;;;709.72;;
27740;SDS011;15134;48.768;9.184;2024-03-29T06:00:07;817.58;;;696.63;;
27740;SDS011;15134;48.768;9.184;2024-03-29T06:02:36;821.73;;;706.73;;
27740;SDS011;15134;48.768;9.184;2024-03-29T06:05:02;821.40;;;708.53;;
27740;SDS011;15134;48.768;9.184;2024-03-29T06:07:30;824.40;;;713.75;;
27740;SDS011;15134;48.768;9.184;2024-03-29T06:09:58;824.58;;;712.05;;
27740;SDS011;15134;48.768;9.184;2024-03-29T06:12:25;825.22;;;715.97;;
27740;SDS011;15134;48.768;9.184;2024-03-29T06:14:52;827.43;;;718.53;;
27740;SDS011;15134;48.768;9.184;2024-03-29T06:17:36;822.03;;;709.40;;
27740;SDS011;15134;48.768;9.184;2024-03-29T06:20:02;821.73;;;709.47;;
27740;SDS011;15134;48.768;9.184;2024-03-29T06:22:29;827.67;;;719.78;;
27740;SDS011;15134;48.768;9.184;2024-03-29T06:24:58;824.60;;;715.33;;
27740;SDS011;15134;48.768;9.184;2024-03-29T06:27:29;824.97;;;714.38;;
27740;SDS011;15134;48.768;9.184;2024-03-29T06:29:55;825.38;;;719.33;;
27740;SDS011;15134;48.768;9.184;2024-03-29T06:32:21;826.53;;;718.10;;
27740;SDS011;15134;48.768;9.184;2024-03-29T06:34:47;827.93;;;720.90;;
27740;SDS011;15134;48.768;9.184;2024-03-29T06:37:13;831.13;;;724.83;;
27740;SDS011;15134;48.768;9.184;2024-03-29T06:39:39;829.10;;;722.80;;
27740;SDS011;15134;48.768;9.184;2024-03-29T06:42:05;829.72;;;722.40;;
27740;SDS011;15134;48.768;9.184;2024-03-29T06:44:34;830.38;;;726.70;;
27740;SDS011;15134;48.768;9.184;2024-03-29T06:47:00;827.92;;;724.03;;
27740;SDS011;15134;48.768;9.184;2024-03-29T06:49:26;828.92;;;724.58;;
27740;SDS011;15134;48.768;9.184;2024-03-29T06:51:52;832.77;;;732.87;;
27740;SDS011;15134;48.768;9.184;2024-03-29T06:54:18;832.37;;;734.00;;
27740;SDS011;15134;48.768;9.184;2024-03-29T06:56:48;831.45;;;729.83;;
27740;SDS011;15134;48.768;9.184;2024-03-29T06:59:14;832.10;;;732.45;;
27740;SDS011;15134;48.768;9.184;2024-03-29T07:01:40;835.08;;;732.97;;
27740;SDS011;15134;48.768;9.184;2024-03-29T07:04:06;833.60;;;735.47;;
27740;SDS011;15134;48.768;9.184;2024-03-29T07:06:32;833.57;;;734.93;;
27740;SDS011;15134;48.768;9.184;2024-03-29T07:08:57;835.63;;;736.10;;
27740;SDS011;15134;48.768;9.184;2024-03-29T07:11:23;833.93;;;734.57;;
27740;SDS011;15134;48.768;9.184;2024-03-29T07:13:49;834.63;;;735.53;;
27740;SDS011;15134;48.768;9.184;2024-03-29T07:16:14;836.07;;;742.93;;
27740;SDS011;15134;48.768;9.184;2024-03-29T07:18:40;838.43;;;744.73;;
27740;SDS011;15134;48.768;9.184;2024-03-29T07:21:06;835.33;;;739.63;;
27740;SDS011;15134;48.768;9.184;2024-03-29T07:23:32;840.20;;;746.63;;
27740;SDS011;15134;48.768;9.184;2024-03-29T07:26:01;839.45;;;743.60;;
27740;SDS011;15134;48.768;9.184;2024-03-29T07:28:29;839.00;;;744.80;;
27740;SDS011;15134;48.768;9.184;2024-03-29T07:30:55;842.28;;;748.42;;
27740;SDS011;15134;48.768;9.184;2024-03-29T07:33:22;835.77;;;740.57;;
27740;SDS011;15134;48.768;9.184;2024-03-29T07:35:52;835.03;;;736.75;;
27740;SDS011;15134;48.768;9.184;2024-03-29T07:38:18;837.20;;;740.28;;
27740;SDS011;15134;48.768;9.184;2024-03-29T07:40:46;834.30;;;736.22;;
27740;SDS011;15134;48.768;9.184;2024-03-29T07:43:15;834.10;;;734.40;;
27740;SDS011;15134;48.768;9.184;2024-03-29T07:45:41;833.33;;;732.20;;
27740;SDS011;15134;48.768;9.184;2024-03-29T07:48:13;831.65;;;730.00;;
27740;SDS011;15134;48.768;9.184;2024-03-29T07:50:42;829.28;;;721.75;;
27740;SDS011;15134;48.768;9.184;2024-03-29T07:53:09;832.08;;;726.70;;
27740;SDS011;15134;48.768;9.184;2024-03-29T07:55:35;834.03;;;730.73;;
27740;SDS011;15134;48.768;9.184;2024-03-29T07:58:05;833.30;;;727.13;;
27740;SDS011;15134;48.768;9.184;2024-03-29T08:00:31;833.50;;;727.28;;
27740;SDS011;15134;48.768;9.184;2024-03-29T08:02:58;831.65;;;721.20;;
27740;SDS011;15134;48.768;9.184;2024-03-29T08:05:24;827.65;;;720.17;;
27740;SDS011;15134;48.768;9.184;2024-03-29T08:07:50;827.17;;;715.70;;
27740;SDS011;15134;48.768;9.184;2024-03-29T08:10:15;828.78;;;718.33;;
27740;SDS011;15134;48.768;9.184;2024-03-29T08:12:41;825.60;;;715.20;;
27740;SDS011;15134;48.768;9.184;2024-03-29T08:15:07;824.33;;;711.80;;
27740;SDS011;15134;48.768;9.184;2024-03-29T08:17:34;825.83;;;714.95;;
27740;SDS011;15134;48.768;9.184;2024-03-29T08:20:00;823.42;;;711.97;;
27740;SDS011;15134;48.768;9.184;2024-03-29T08:22:26;825.07;;;711.53;;
27740;SDS011;15134;48.768;9.184;2024-03-29T08:24:53;824.35;;;713.97;;
27740;SDS011;15134;48.768;9.184;2024-03-29T08:27:19;824.35;;;714.00;;
27740;SDS011;15134;48.768;9.184;2024-03-29T08:29:45;827.75;;;718.10;;
27740;SDS011;15134;48.768;9.184;2024-03-29T08:32:11;827.50;;;709.33;;
27740;SDS011;15134;48.768;9.184;2024-03-29T08:34:38;827.30;;;713.28;;
27740;SDS011;15134;48.768;9.184;2024-03-29T08:37:04;827.85;;;713.65;;
27740;SDS011;15134;48.768;9.184;2024-03-29T08:39:30;826.75;;;716.65;;
27740;SDS011;15134;48.768;9.184;2024-03-29T08:41:57;826.83;;;711.97;;
27740;SDS011;15134;48.768;9.184;2024-03-29T08:44:23;825.45;;;715.15;;
27740;SDS011;15134;48.768;9.184;2024-03-29T08:46:52;823.97;;;711.17;;
27740;SDS011;15134;48.768;9.184;2024-03-29T08:49:20;830.25;;;726.47;;
27740;SDS011;15134;48.768;9.184;2024-03-29T08:51:45;828.13;;;720.10;;
27740;SDS011;15134;48.768;9.184;2024-03-29T08:54:11;831.92;;;728.63;;
27740;SDS011;15134;48.768;9.184;2024-03-29T08:56:37;828.80;;;724.47;;
27740;SDS011;15134;48.768;9.184;2024-03-29T08:59:05;832.05;;;727.45;;
27740;SDS011;15134;48.768;9.184;2024-03-29T09:01:41;827.97;;;723.50;;
27740;SDS011;15134;48.768;9.184;2024-03-29T09:04:10;832.83;;;729.30;;
27740;SDS011;15134;48.768;9.184;2024-03-29T09:06:39;831.95;;;734.50;;
27740;SDS011;15134;48.768;9.184;2024-03-29T09:09:05;829.50;;;724.72;;
27740;SDS011;15134;48.768;9.184;2024-03-29T09:11:32;831.80;;;729.28;;
27740;SDS011;15134;48.768;9.184;2024-03-29T09:13:58;832.70;;;729.60;;
27740;SDS011;15134;48.768;9.184;2024-03-29T09:16:25;832.45;;;727.90;;
27740;SDS011;15134;48.768;9.184;2024-03-29T09:18:51;832.20;;;728.83;;
27740;SDS011;15134;48.768;9.184;2024-03-29T09:21:17;832.08;;;731.03;;
27740;SDS011;15134;48.768;9.184;2024-03-29T09:23:45;834.63;;;733.85;;
27740;SDS011;15134;48.768;9.184;2024-03-29T09:26:11;832.93;;;732.60;;
27740;SDS011;15134;48.768;9.184;2024-03-29T09:28:37;832.88;;;734.67;;
27740;SDS011;15134;48.768;9.184;2024-03-29T09:31:03;829.37;;;727.60;;
27740;SDS011;15134;48.768;9.184;2024-03-29T09:33:29;826.50;;;719.38;;
27740;SDS011;15134;48.768;9.184;2024-03-29T09:35:55;825.80;;;714.63;;
27740;SDS011;15134;48.768;9.184;2024-03-29T09:38:21;823.63;;;716.65;;
27740;SDS011;15134;48.768;9.184;2024-03-29T09:40:48;825.00;;;718.20;;
27740;SDS011;15134;48.768;9.184;2024-03-29T09:43:17;826.30;;;720.15;;
27740;SDS011;15134;48.768;9.184;2024-03-29T09:45:44;826.70;;;721.30;;
27740;SDS011;15134;48.768;9.184;2024-03-29T09:48:10;836.05;;;732.35;;
27740;SDS011;15134;48.768;9.184;2024-03-29T09:50:37;834.85;;;730.83;;
27740;SDS011;15134;48.768;9.184;2024-03-29T09:53:06;851.03;;;730.33;;
27740;SDS011;15134;48.768;9.184;2024-03-29T09:55:33;851.70;;;724.13;;
27740;SDS011;15134;48.768;9.184;2024-03-29T09:58:01;834.50;;;723.17;;
27740;SDS011;15134;48.768;9.184;2024-03-29T10:00:28;844.33;;;732.70;;
27740;SDS011;15134;48.768;9.184;2024-03-29T10:02:55;841.53;;;736.88;;
27740;SDS011;15134;48.768;9.184;2024-03-29T10:05:22;838.67;;;735.67;;
27740;SDS011;15134;48.768;9.184;2024-03-29T10:07:50;835.95;;;732.10;;
27740;SDS011;15134;48.768;9.184;2024-03-29T10:10:16;836.33;;;734.90;;
27740;SDS011;15134;48.768;9.184;2024-03-29T10:12:43;834.67;;;730.00;;
27740;SDS011;15134;48.768;9.184;2024-03-29T10:15:08;835.45;;;737.55;;
27740;SDS011;15134;48.768;9.184;2024-03-29T10:17:39;838.40;;;742.37;;
27740;SDS011;15134;48.768;9.184;2024-03-29T10:20:09;837.78;;;741.78;;
27740;SDS011;15134;48.768;9.184;2024-03-29T10:22:39;859.08;;;740.65;;
27740;SDS011;15134;48.768;9.184;2024-03-29T10:25:06;845.28;;;740.58;;
27740;SDS011;15134;48.768;9.184;2024-03-29T10:27:32;865.67;;;743.85;;
27740;SDS011;15134;48.768;9.184;2024-03-29T10:29:59;861.80;;;745.73;;
27740;SDS011;15134;48.768;9.184;2024-03-29T10:32:24;844.75;;;744.78;;
27740;SDS011;15134;48.768;9.184;2024-03-29T10:34:50;844.08;;;747.35;;
27740;SDS011;15134;48.768;9.184;2024-03-29T10:37:17;842.35;;;748.90;;
27740;SDS011;15134;48.768;9.184;2024-03-29T10:39:51;847.92;;;754.53;;
27740;SDS011;15134;48.768;9.184;2024-03-29T10:42:18;855.20;;;761.40;;
27740;SDS011;15134;48.768;9.184;2024-03-29T10:44:45;856.92;;;763.10;;
27740;SDS011;15134;48.768;9.184;2024-03-29T10:47:15;857.40;;;763.53;;
27740;SDS011;15134;48.768;9.184;2024-03-29T10:49:44;868.27;;;774.17;;
27740;SDS011;15134;48.768;9.184;2024-03-29T10:52:14;862.78;;;768.78;;
27740;SDS011;15134;48.768;9.184;2024-03-29T10:54:42;869.60;;;775.20;;
27740;SDS011;15134;48.768;9.184;2024-03-29T10:57:12;867.13;;;772.70;;
27740;SDS011;15134;48.768;9.184;2024-03-29T10:59:48;864.27;;;770.00;;
27740;SDS011;15134;48.768;9.184;2024-03-29T11:05:06;871.35;;;776.85;;
27740;SDS011;15134;48.768;9.184;2024-03-29T11:07:34;871.15;;;776.78;;
27740;SDS011;15134;48.768;9.184;2024-03-29T11:10:04;875.95;;;781.22;;
27740;SDS011;15134;48.768;9.184;2024-03-29T11:12:35;877.38;;;782.58;;
27740;SDS011;15134;48.768;9.184;2024-03-29T11:15:09;877.13;;;782.40;;
27740;SDS011;15134;48.768;9.184;2024-03-29T11:17:41;874.90;;;780.25;;
27740;SDS011;15134;48.768;9.184;2024-03-29T11:20:07;882.88;;;787.78;;
27740;SDS011;15134;48.768;9.184;2024-03-29T11:22:35;878.92;;;784.25;;
27740;SDS011;15134;48.768;9.184;2024-03-29T11:25:01;875.30;;;780.90;;
27740;SDS011;15134;48.768;9.184;2024-03-29T11:27:29;874.53;;;780.08;;
27740;SDS011;15134;48.768;9.184;2024-03-29T11:29:54;861.23;;;767.23;;
27740;SDS011;15134;48.768;9.184;2024-03-29T11:32:36;861.50;;;767.57;;
27740;SDS011;15134;48.768;9.184;2024-03-29T11:35:04;867.88;;;773.67;;
27740;SDS011;15134;48.768;9.184;2024-03-29T11:37:30;875.35;;;780.75;;
27740;SDS011;15134;48.768;9.184;2024-03-29T11:39:59;868.63;;;774.35;;
27740;SDS011;15134;48.768;9.184;2024-03-29T11:45:23;859.30;;;765.33;;
27740;SDS011;15134;48.768;9.184;2024-03-29T11:47:55;868.13;;;773.97;;
27740;SDS011;15134;48.768;9.184;2024-03-29T11:50:27;866.38;;;772.08;;
27740;SDS011;15134;48.768;9.184;2024-03-29T11:52:52;852.80;;;759.50;;
27740;SDS011;15134;48.768;9.184;2024-03-29T11:55:18;858.08;;;764.22;;
27740;SDS011;15134;48.768;9.184;2024-03-29T11:57:44;861.40;;;767.53;;
27740;SDS011;15134;48.768;9.184;2024-03-29T12:00:10;866.00;;;772.07;;
27740;SDS011;15134;48.768;9.184;2024-03-29T12:02:36;861.78;;;768.10;;
27740;SDS011;15134;48.768;9.184;2024-03-29T12:05:07;860.17;;;766.55;;
27740;SDS011;15134;48.768;9.184;2024-03-29T12:07:33;864.53;;;770.60;;
27740;SDS011;15134;48.768;9.184;2024-03-29T12:09:59;866.20;;;772.30;;
27740;SDS011;15134;48.768;9.184;2024-03-29T12:12:25;865.27;;;771.07;;
27740;SDS011;15134;48.768;9.184;2024-03-29T12:14:51;875.13;;;779.43;;
27740;SDS011;15134;48.768;9.184;2024-03-29T12:17:16;863.77;;;769.67;;
27740;SDS011;15134;48.768;9.184;2024-03-29T12:19:42;861.57;;;767.47;;
27740;SDS011;15134;48.768;9.184;2024-03-29T12:22:09;869.33;;;774.93;;
27740;SDS011;15134;48.768;9.184;2024-03-29T12:24:35;866.70;;;772.42;;
27740;SDS011;15134;48.768;9.184;2024-03-29T12:27:01;876.25;;;781.72;;
27740;SDS011;15134;48.768;9.184;2024-03-29T12:29:27;878.28;;;783.58;;
27740;SDS011;15134;48.768;9.184;2024-03-29T12:32:00;877.65;;;782.92;;
27740;SDS011;15134;48.768;9.184;2024-03-29T12:34:26;894.75;;;799.45;;
27740;SDS011;15134;48.768;9.184;2024-03-29T12:36:52;890.88;;;795.78;;
27740;SDS011;15134;48.768;9.184;2024-03-29T12:39:18;892.37;;;797.33;;
27740;SDS011;15134;48.768;9.184;2024-03-29T12:41:46;893.35;;;798.22;;
27740;SDS011;15134;48.768;9.184;2024-03-29T12:44:12;899.78;;;804.00;;
27740;SDS011;15134;48.768;9.184;2024-03-29T12:46:38;898.47;;;802.97;;
27740;SDS011;15134;48.768;9.184;2024-03-29T12:49:04;898.35;;;802.53;;
27740;SDS011;15134;48.768;9.184;2024-03-29T12:51:29;898.75;;;803.25;;
27740;SDS011;15134;48.768;9.184;2024-03-29T12:54:03;894.42;;;799.10;;
27740;SDS011;15134;48.768;9.184;2024-03-29T12:56:30;883.08;;;788.35;;
27740;SDS011;15134;48.768;9.184;2024-03-29T12:58:56;889.47;;;794.50;;
27740;SDS011;15134;48.768;9.184;2024-03-29T13:01:22;886.00;;;791.30;;
27740;SDS011;15134;48.768;9.184;2024-03-29T13:03:48;891.57;;;796.50;;
27740;SDS011;15134;48.768;9.184;2024-03-29T13:06:14;887.70;;;792.63;;
27740;SDS011;15134;48.768;9.184;2024-03-29T13:08:40;889.20;;;794.10;;
27740;SDS011;15134;48.768;9.184;2024-03-29T13:11:06;888.63;;;793.92;;
27740;SDS011;15134;48.768;9.184;2024-03-29T13:13:32;880.42;;;786.00;;
27740;SDS011;15134;48.768;9.184;2024-03-29T13:15:58;890.23;;;795.43;;
27740;SDS011;15134;48.768;9.184;2024-03-29T13:18:24;883.63;;;789.03;;
27740;SDS011;15134;48.768;9.184;2024-03-29T13:20:49;887.40;;;792.50;;
27740;SDS011;15134;48.768;9.184;2024-03-29T13:23:15;877.43;;;783.07;;
27740;SDS011;15134;48.768;9.184;2024-03-29T13:25:42;868.83;;;774.73;;
27740;SDS011;15134;48.768;9.184;2024-03-29T13:28:08;866.37;;;772.67;;
27740;SDS011;15134;48.768;9.184;2024-03-29T13:30:35;872.35;;;778.38;;
27740;SDS011;15134;48.768;9.184;2024-03-29T13:33:08;867.85;;;774.15;;
27740;SDS011;15134;48.768;9.184;2024-03-29T13:35:35;870.65;;;776.70;;
27740;SDS011;15134;48.768;9.184;2024-03-29T13:38:01;871.72;;;777.72;;
27740;SDS011;15134;48.768;9.184;2024-03-29T13:40:27;867.80;;;773.92;;
27740;SDS011;15134;48.768;9.184;2024-03-29T13:42:54;860.67;;;767.25;;
27740;SDS011;15134;48.768;9.184;2024-03-29T13:45:20;873.92;;;779.83;;
27740;SDS011;15134;48.768;9.184;2024-03-29T13:47:45;868.33;;;774.22;;
27740;SDS011;15134;48.768;9.184;2024-03-29T13:50:12;875.10;;;780.83;;
27740;SDS011;15134;48.768;9.184;2024-03-29T13:52:40;868.72;;;774.72;;
27740;SDS011;15134;48.768;9.184;2024-03-29T13:55:07;863.15;;;769.53;;
27740;SDS011;15134;48.768;9.184;2024-03-29T13:57:33;870.80;;;776.90;;
27740;SDS011;15134;48.768;9.184;2024-03-29T13:59:59;868.10;;;774.37;;